sensor_id;sensor_type;location;lat;lon;timestamp;temperature;humidity
13462;DHT22;6803;45.264;5.468;2023-04-25T00:00:10;11.20;99.90
13462;DHT22;6803;45.264;5.468;2023-04-25T00:02:43;11.20;99.90
13462;DHT22;6803;45.264;5.468;2023-04-25T00:05:14;11.20;99.90
13462;DHT22;6803;45.264;5.468;2023-04-25T00:07:45;11.20;99.90
13462;DHT22;6803;45.264;5.468;2023-04-25T00:10:16;11.30;99.90
13462;DHT22;6803;45.264;5.468;2023-04-25T00:12:47;11.20;99.90
13462;DHT22;6803;45.264;5.468;2023-04-25T00:15:19;11.10;99.90
13462;DHT22;6803;45.264;5.468;2023-04-25T00:17:50;11.00;99.90
13462;DHT22;6803;45.264;5.468;2023-04-25T00:20:22;11.00;99.90
13462;DHT22;6803;45.264;5.468;2023-04-25T00:22:55;10.90;99.90
13462;DHT22;6803;45.264;5.468;2023-04-25T00:25:26;10.90;99.90
13462;DHT22;6803;45.264;5.468;2023-04-25T00:28:00;10.90;99.90
13462;DHT22;6803;45.264;5.468;2023-04-25T00:30:31;10.90;99.90
13462;DHT22;6803;45.264;5.468;2023-04-25T00:33:03;11.00;99.90
13462;DHT22;6803;45.264;5.468;2023-04-25T00:35:34;11.00;99.90
13462;DHT22;6803;45.264;5.468;2023-04-25T00:38:05;10.90;99.90
13462;DHT22;6803;45.264;5.468;2023-04-25T00:40:37;10.90;99.90
13462;DHT22;6803;45.264;5.468;2023-04-25T00:43:08;10.90;99.90
13462;DHT22;6803;45.264;5.468;2023-04-25T00:45:40;10.80;99.90
13462;DHT22;6803;45.264;5.468;2023-04-25T00:48:11;10.80;99.90
13462;DHT22;6803;45.264;5.468;2023-04-25T00:50:43;10.80;99.90
13462;DHT22;6803;45.264;5.468;2023-04-25T00:53:15;10.80;99.90
13462;DHT22;6803;45.264;5.468;2023-04-25T00:55:46;10.70;99.90
13462;DHT22;6803;45.264;5.468;2023-04-25T00:58:17;10.70;99.90
13462;DHT22;6803;45.264;5.468;2023-04-25T01:00:51;10.70;99.90
13462;DHT22;6803;45.264;5.468;2023-04-25T01:03:23;10.60;99.90
13462;DHT22;6803;45.264;5.468;2023-04-25T01:05:56;10.50;99.90
13462;DHT22;6803;45.264;5.468;2023-04-25T01:08:28;10.40;99.90
13462;DHT22;6803;45.264;5.468;2023-04-25T01:10:59;10.50;99.90
13462;DHT22;6803;45.264;5.468;2023-04-25T01:13:31;10.60;99.90
13462;DHT22;6803;45.264;5.468;2023-04-25T01:16:03;10.50;99.90
13462;DHT22;6803;45.264;5.468;2023-04-25T01:18:34;10.40;99.90
13462;DHT22;6803;45.264;5.468;2023-04-25T01:21:09;10.40;99.90
13462;DHT22;6803;45.264;5.468;2023-04-25T01:23:41;10.30;99.90
13462;DHT22;6803;45.264;5.468;2023-04-25T01:26:13;10.40;99.90
13462;DHT22;6803;45.264;5.468;2023-04-25T01:28:44;10.30;99.90
13462;DHT22;6803;45.264;5.468;2023-04-25T01:31:16;10.20;99.90
13462;DHT22;6803;45.264;5.468;2023-04-25T01:33:48;10.20;99.90
13462;DHT22;6803;45.264;5.468;2023-04-25T01:36:20;10.10;99.90
13462;DHT22;6803;45.264;5.468;2023-04-25T01:38:52;10.10;99.90
13462;DHT22;6803;45.264;5.468;2023-04-25T01:41:24;10.10;99.90
13462;DHT22;6803;45.264;5.468;2023-04-25T01:43:55;10.10;99.90
13462;DHT22;6803;45.264;5.468;2023-04-25T01:46:27;10.10;99.90
13462;DHT22;6803;45.264;5.468;2023-04-25T01:48:58;10.20;99.90
13462;DHT22;6803;45.264;5.468;2023-04-25T01:51:29;10.20;99.90
13462;DHT22;6803;45.264;5.468;2023-04-25T01:54:01;10.20;99.90
13462;DHT22;6803;45.264;5.468;2023-04-25T01:56:33;10.10;99.90
13462;DHT22;6803;45.264;5.468;2023-04-25T01:59:06;10.10;99.90
13462;DHT22;6803;45.264;5.468;2023-04-25T02:01:36;10.10;99.90
13462;DHT22;6803;45.264;5.468;2023-04-25T02:04:08;10.10;99.90
13462;DHT22;6803;45.264;5.468;2023-04-25T02:06:39;10.10;99.90
13462;DHT22;6803;45.264;5.468;2023-04-25T02:09:10;10.20;99.90
13462;DHT22;6803;45.264;5.468;2023-04-25T02:11:41;10.30;99.90
13462;DHT22;6803;45.264;5.468;2023-04-25T02:14:12;10.30;99.90
13462;DHT22;6803;45.264;5.468;2023-04-25T02:16:44;10.30;99.90
13462;DHT22;6803;45.264;5.468;2023-04-25T02:19:16;10.30;99.90
13462;DHT22;6803;45.264;5.468;2023-04-25T02:21:47;10.40;99.90
13462;DHT22;6803;45.264;5.468;2023-04-25T02:24:18;10.40;99.90
13462;DHT22;6803;45.264;5.468;2023-04-25T02:26:49;10.30;99.90
13462;DHT22;6803;45.264;5.468;2023-04-25T02:29:20;10.20;99.90
13462;DHT22;6803;45.264;5.468;2023-04-25T02:31:51;10.10;99.90
13462;DHT22;6803;45.264;5.468;2023-04-25T02:34:41;10.20;99.90
13462;DHT22;6803;45.264;5.468;2023-04-25T02:37:12;10.20;99.90
13462;DHT22;6803;45.264;5.468;2023-04-25T02:39:43;10.10;99.90
13462;DHT22;6803;45.264;5.468;2023-04-25T02:42:14;10.10;99.90
13462;DHT22;6803;45.264;5.468;2023-04-25T02:44:45;10.20;99.90
13462;DHT22;6803;45.264;5.468;2023-04-25T02:47:16;10.10;99.90
13462;DHT22;6803;45.264;5.468;2023-04-25T02:49:47;10.10;99.90
13462;DHT22;6803;45.264;5.468;2023-04-25T02:52:18;10.10;99.90
13462;DHT22;6803;45.264;5.468;2023-04-25T02:54:50;10.10;99.90
13462;DHT22;6803;45.264;5.468;2023-04-25T02:57:21;10.00;99.90
13462;DHT22;6803;45.264;5.468;2023-04-25T02:59:52;10.10;99.90
13462;DHT22;6803;45.264;5.468;2023-04-25T03:02:23;10.10;99.90
13462;DHT22;6803;45.264;5.468;2023-04-25T03:04:55;10.10;99.90
13462;DHT22;6803;45.264;5.468;2023-04-25T03:07:26;10.20;99.90
13462;DHT22;6803;45.264;5.468;2023-04-25T03:09:57;10.30;99.90
13462;DHT22;6803;45.264;5.468;2023-04-25T03:12:28;10.30;99.90
13462;DHT22;6803;45.264;5.468;2023-04-25T03:14:59;10.30;99.90
13462;DHT22;6803;45.264;5.468;2023-04-25T03:17:30;10.20;99.90
13462;DHT22;6803;45.264;5.468;2023-04-25T03:20:01;10.20;99.90
13462;DHT22;6803;45.264;5.468;2023-04-25T03:22:33;10.10;99.90
13462;DHT22;6803;45.264;5.468;2023-04-25T03:25:07;10.10;99.90
13462;DHT22;6803;45.264;5.468;2023-04-25T03:27:38;10.00;99.90
13462;DHT22;6803;45.264;5.468;2023-04-25T03:30:10;9.90;99.90
13462;DHT22;6803;45.264;5.468;2023-04-25T03:32:42;9.90;99.90
13462;DHT22;6803;45.264;5.468;2023-04-25T03:35:13;10.00;99.90
13462;DHT22;6803;45.264;5.468;2023-04-25T03:37:44;10.00;99.90
13462;DHT22;6803;45.264;5.468;2023-04-25T03:40:15;10.20;99.90
13462;DHT22;6803;45.264;5.468;2023-04-25T03:42:46;10.30;99.90
13462;DHT22;6803;45.264;5.468;2023-04-25T03:45:17;10.30;99.90
13462;DHT22;6803;45.264;5.468;2023-04-25T03:47:48;10.50;99.90
13462;DHT22;6803;45.264;5.468;2023-04-25T03:50:20;10.70;99.90
13462;DHT22;6803;45.264;5.468;2023-04-25T03:52:51;10.60;99.90
13462;DHT22;6803;45.264;5.468;2023-04-25T03:55:22;10.60;99.90
13462;DHT22;6803;45.264;5.468;2023-04-25T03:57:52;10.70;99.90
13462;DHT22;6803;45.264;5.468;2023-04-25T04:00:23;10.70;99.90
13462;DHT22;6803;45.264;5.468;2023-04-25T04:02:54;10.60;99.90
13462;DHT22;6803;45.264;5.468;2023-04-25T04:05:25;10.50;99.90
13462;DHT22;6803;45.264;5.468;2023-04-25T04:07:56;10.50;99.90
13462;DHT22;6803;45.264;5.468;2023-04-25T04:10:27;10.50;99.90
13462;DHT22;6803;45.264;5.468;2023-04-25T04:12:58;10.50;99.90
13462;DHT22;6803;45.264;5.468;2023-04-25T04:15:28;10.40;99.90
13462;DHT22;6803;45.264;5.468;2023-04-25T04:18:01;10.40;99.90
13462;DHT22;6803;45.264;5.468;2023-04-25T04:20:32;10.50;99.90
13462;DHT22;6803;45.264;5.468;2023-04-25T04:23:04;10.40;99.90
13462;DHT22;6803;45.264;5.468;2023-04-25T04:25:35;10.30;99.90
13462;DHT22;6803;45.264;5.468;2023-04-25T04:28:06;10.30;99.90
13462;DHT22;6803;45.264;5.468;2023-04-25T04:30:37;10.30;99.90
13462;DHT22;6803;45.264;5.468;2023-04-25T04:33:08;10.20;99.90
13462;DHT22;6803;45.264;5.468;2023-04-25T04:35:39;10.20;99.90
13462;DHT22;6803;45.264;5.468;2023-04-25T04:38:11;10.20;99.90
13462;DHT22;6803;45.264;5.468;2023-04-25T04:40:41;10.30;99.90
13462;DHT22;6803;45.264;5.468;2023-04-25T04:43:13;10.30;99.90
13462;DHT22;6803;45.264;5.468;2023-04-25T04:45:45;10.30;99.90
13462;DHT22;6803;45.264;5.468;2023-04-25T04:48:17;10.30;99.90
13462;DHT22;6803;45.264;5.468;2023-04-25T04:50:48;10.30;99.90
13462;DHT22;6803;45.264;5.468;2023-04-25T04:53:19;10.30;99.90
13462;DHT22;6803;45.264;5.468;2023-04-25T04:55:50;10.20;99.90
13462;DHT22;6803;45.264;5.468;2023-04-25T04:58:21;10.20;99.90
13462;DHT22;6803;45.264;5.468;2023-04-25T05:00:53;10.20;99.90
13462;DHT22;6803;45.264;5.468;2023-04-25T05:03:24;10.20;99.90
13462;DHT22;6803;45.264;5.468;2023-04-25T05:06:15;10.20;99.90
13462;DHT22;6803;45.264;5.468;2023-04-25T05:08:46;10.20;99.90
13462;DHT22;6803;45.264;5.468;2023-04-25T05:11:18;10.20;99.90
13462;DHT22;6803;45.264;5.468;2023-04-25T05:13:52;10.20;99.90
13462;DHT22;6803;45.264;5.468;2023-04-25T05:16:23;10.30;99.90
13462;DHT22;6803;45.264;5.468;2023-04-25T05:18:55;10.30;99.90
13462;DHT22;6803;45.264;5.468;2023-04-25T05:21:26;10.40;99.90
13462;DHT22;6803;45.264;5.468;2023-04-25T05:23:57;10.30;99.90
13462;DHT22;6803;45.264;5.468;2023-04-25T05:26:29;10.30;99.90
13462;DHT22;6803;45.264;5.468;2023-04-25T05:29:00;10.40;99.90
13462;DHT22;6803;45.264;5.468;2023-04-25T05:31:32;10.40;99.90
13462;DHT22;6803;45.264;5.468;2023-04-25T05:34:03;10.40;99.90
13462;DHT22;6803;45.264;5.468;2023-04-25T05:36:34;10.40;99.90
13462;DHT22;6803;45.264;5.468;2023-04-25T05:39:05;10.40;99.90
13462;DHT22;6803;45.264;5.468;2023-04-25T05:41:37;10.50;99.90
13462;DHT22;6803;45.264;5.468;2023-04-25T05:44:09;10.50;99.90
13462;DHT22;6803;45.264;5.468;2023-04-25T05:46:40;10.50;99.90
13462;DHT22;6803;45.264;5.468;2023-04-25T05:49:11;10.50;99.90
13462;DHT22;6803;45.264;5.468;2023-04-25T05:51:42;10.60;99.90
13462;DHT22;6803;45.264;5.468;2023-04-25T05:54:14;10.60;99.90
13462;DHT22;6803;45.264;5.468;2023-04-25T05:56:45;10.60;99.90
13462;DHT22;6803;45.264;5.468;2023-04-25T05:59:15;10.60;99.90
13462;DHT22;6803;45.264;5.468;2023-04-25T06:01:46;10.70;99.90
13462;DHT22;6803;45.264;5.468;2023-04-25T06:04:17;10.80;99.90
13462;DHT22;6803;45.264;5.468;2023-04-25T06:06:48;10.80;99.90
13462;DHT22;6803;45.264;5.468;2023-04-25T06:09:19;10.70;99.90
13462;DHT22;6803;45.264;5.468;2023-04-25T06:11:51;10.70;99.90
13462;DHT22;6803;45.264;5.468;2023-04-25T06:14:22;10.80;99.90
13462;DHT22;6803;45.264;5.468;2023-04-25T06:16:54;10.80;99.90
13462;DHT22;6803;45.264;5.468;2023-04-25T06:19:25;10.80;99.90
13462;DHT22;6803;45.264;5.468;2023-04-25T06:21:56;10.90;99.90
13462;DHT22;6803;45.264;5.468;2023-04-25T06:24:27;10.80;99.90
13462;DHT22;6803;45.264;5.468;2023-04-25T06:26:58;10.90;99.90
13462;DHT22;6803;45.264;5.468;2023-04-25T06:32:07;10.80;99.90
13462;DHT22;6803;45.264;5.468;2023-04-25T06:34:38;10.90;99.90
13462;DHT22;6803;45.264;5.468;2023-04-25T06:37:09;11.00;99.90
13462;DHT22;6803;45.264;5.468;2023-04-25T06:39:39;10.90;99.90
13462;DHT22;6803;45.264;5.468;2023-04-25T06:42:10;11.00;99.90
13462;DHT22;6803;45.264;5.468;2023-04-25T06:44:41;11.00;99.90
13462;DHT22;6803;45.264;5.468;2023-04-25T06:47:12;10.90;99.90
13462;DHT22;6803;45.264;5.468;2023-04-25T06:49:43;10.90;99.90
13462;DHT22;6803;45.264;5.468;2023-04-25T06:52:14;10.90;99.90
13462;DHT22;6803;45.264;5.468;2023-04-25T06:54:46;10.90;99.90
13462;DHT22;6803;45.264;5.468;2023-04-25T06:57:17;10.80;99.90
13462;DHT22;6803;45.264;5.468;2023-04-25T06:59:48;10.80;99.90
13462;DHT22;6803;45.264;5.468;2023-04-25T07:02:18;10.80;99.90
13462;DHT22;6803;45.264;5.468;2023-04-25T07:04:51;10.80;99.90
13462;DHT22;6803;45.264;5.468;2023-04-25T07:07:22;10.90;99.90
13462;DHT22;6803;45.264;5.468;2023-04-25T07:09:53;10.90;99.90
13462;DHT22;6803;45.264;5.468;2023-04-25T07:12:24;11.00;99.90
13462;DHT22;6803;45.264;5.468;2023-04-25T07:14:54;11.00;99.90
13462;DHT22;6803;45.264;5.468;2023-04-25T07:17:25;11.20;99.90
13462;DHT22;6803;45.264;5.468;2023-04-25T07:19:56;11.30;99.90
13462;DHT22;6803;45.264;5.468;2023-04-25T07:22:27;11.20;99.90
13462;DHT22;6803;45.264;5.468;2023-04-25T07:24:58;11.20;99.90
13462;DHT22;6803;45.264;5.468;2023-04-25T07:27:29;11.20;99.90
13462;DHT22;6803;45.264;5.468;2023-04-25T07:29:59;11.30;99.90
13462;DHT22;6803;45.264;5.468;2023-04-25T07:32:30;11.30;99.90
13462;DHT22;6803;45.264;5.468;2023-04-25T07:35:01;11.20;99.90
13462;DHT22;6803;45.264;5.468;2023-04-25T07:37:33;11.30;99.90
13462;DHT22;6803;45.264;5.468;2023-04-25T07:40:06;11.30;99.90
13462;DHT22;6803;45.264;5.468;2023-04-25T07:42:38;11.30;99.90
13462;DHT22;6803;45.264;5.468;2023-04-25T07:45:10;11.30;99.90
13462;DHT22;6803;45.264;5.468;2023-04-25T07:47:41;11.40;99.90
13462;DHT22;6803;45.264;5.468;2023-04-25T07:50:13;11.50;99.90
13462;DHT22;6803;45.264;5.468;2023-04-25T07:52:43;11.50;99.90
13462;DHT22;6803;45.264;5.468;2023-04-25T07:55:14;11.70;99.90
13462;DHT22;6803;45.264;5.468;2023-04-25T07:57:45;11.80;99.90
13462;DHT22;6803;45.264;5.468;2023-04-25T08:00:17;11.90;99.90
13462;DHT22;6803;45.264;5.468;2023-04-25T08:02:48;11.80;99.90
13462;DHT22;6803;45.264;5.468;2023-04-25T08:05:20;11.70;99.90
13462;DHT22;6803;45.264;5.468;2023-04-25T08:07:52;11.90;99.90
13462;DHT22;6803;45.264;5.468;2023-04-25T08:10:22;11.90;99.90
13462;DHT22;6803;45.264;5.468;2023-04-25T08:12:53;12.20;99.90
13462;DHT22;6803;45.264;5.468;2023-04-25T08:15:24;12.70;99.90
13462;DHT22;6803;45.264;5.468;2023-04-25T08:17:55;12.80;99.90
13462;DHT22;6803;45.264;5.468;2023-04-25T08:20:26;13.00;99.90
13462;DHT22;6803;45.264;5.468;2023-04-25T08:22:57;12.90;99.90
13462;DHT22;6803;45.264;5.468;2023-04-25T08:25:28;13.30;99.90
13462;DHT22;6803;45.264;5.468;2023-04-25T08:27:58;13.50;99.90
13462;DHT22;6803;45.264;5.468;2023-04-25T08:30:31;13.00;99.90
13462;DHT22;6803;45.264;5.468;2023-04-25T08:33:02;13.10;99.90
13462;DHT22;6803;45.264;5.468;2023-04-25T08:35:34;13.50;99.90
13462;DHT22;6803;45.264;5.468;2023-04-25T08:38:05;13.30;99.90
13462;DHT22;6803;45.264;5.468;2023-04-25T08:40:38;13.80;99.90
13462;DHT22;6803;45.264;5.468;2023-04-25T08:43:10;14.00;99.90
13462;DHT22;6803;45.264;5.468;2023-04-25T08:45:43;13.80;99.90
13462;DHT22;6803;45.264;5.468;2023-04-25T08:48:16;13.50;99.90
13462;DHT22;6803;45.264;5.468;2023-04-25T08:50:49;13.30;99.90
13462;DHT22;6803;45.264;5.468;2023-04-25T08:56:01;14.20;99.90
13462;DHT22;6803;45.264;5.468;2023-04-25T08:58:33;14.00;99.90
13462;DHT22;6803;45.264;5.468;2023-04-25T09:01:05;13.80;99.90
13462;DHT22;6803;45.264;5.468;2023-04-25T09:03:37;14.00;99.90
13462;DHT22;6803;45.264;5.468;2023-04-25T09:06:09;13.90;99.90
13462;DHT22;6803;45.264;5.468;2023-04-25T09:08:41;13.90;99.90
13462;DHT22;6803;45.264;5.468;2023-04-25T09:11:13;13.90;99.90
13462;DHT22;6803;45.264;5.468;2023-04-25T09:13:44;13.80;99.90
13462;DHT22;6803;45.264;5.468;2023-04-25T09:16:16;13.90;99.90
13462;DHT22;6803;45.264;5.468;2023-04-25T09:18:48;14.00;99.90
13462;DHT22;6803;45.264;5.468;2023-04-25T09:21:21;13.90;99.90
13462;DHT22;6803;45.264;5.468;2023-04-25T09:23:52;13.60;99.90
13462;DHT22;6803;45.264;5.468;2023-04-25T09:26:23;13.50;99.90
13462;DHT22;6803;45.264;5.468;2023-04-25T09:29:05;13.70;99.90
13462;DHT22;6803;45.264;5.468;2023-04-25T09:31:37;14.20;99.90
13462;DHT22;6803;45.264;5.468;2023-04-25T09:34:08;14.50;99.90
13462;DHT22;6803;45.264;5.468;2023-04-25T09:36:41;14.80;99.90
13462;DHT22;6803;45.264;5.468;2023-04-25T09:39:14;15.20;99.90
13462;DHT22;6803;45.264;5.468;2023-04-25T09:41:45;15.70;99.90
13462;DHT22;6803;45.264;5.468;2023-04-25T09:44:23;15.40;99.90
13462;DHT22;6803;45.264;5.468;2023-04-25T09:46:54;14.90;99.90
13462;DHT22;6803;45.264;5.468;2023-04-25T09:49:26;14.50;99.90
13462;DHT22;6803;45.264;5.468;2023-04-25T09:51:57;14.40;99.90
13462;DHT22;6803;45.264;5.468;2023-04-25T09:54:29;13.60;99.90
13462;DHT22;6803;45.264;5.468;2023-04-25T09:57:04;13.80;99.90
13462;DHT22;6803;45.264;5.468;2023-04-25T10:02:15;13.90;99.90
13462;DHT22;6803;45.264;5.468;2023-04-25T10:04:48;13.90;99.90
13462;DHT22;6803;45.264;5.468;2023-04-25T10:07:23;13.80;99.90
13462;DHT22;6803;45.264;5.468;2023-04-25T10:09:59;14.00;99.90
13462;DHT22;6803;45.264;5.468;2023-04-25T10:12:31;14.20;99.90
13462;DHT22;6803;45.264;5.468;2023-04-25T10:15:04;14.40;99.90
13462;DHT22;6803;45.264;5.468;2023-04-25T10:17:37;13.90;99.90
13462;DHT22;6803;45.264;5.468;2023-04-25T10:20:10;13.70;99.90
13462;DHT22;6803;45.264;5.468;2023-04-25T10:22:44;13.80;99.90
13462;DHT22;6803;45.264;5.468;2023-04-25T10:25:15;13.90;99.90
13462;DHT22;6803;45.264;5.468;2023-04-25T10:27:46;14.10;99.90
13462;DHT22;6803;45.264;5.468;2023-04-25T10:30:17;14.20;99.90
13462;DHT22;6803;45.264;5.468;2023-04-25T10:32:48;14.10;99.90
13462;DHT22;6803;45.264;5.468;2023-04-25T10:35:24;13.80;99.90
13462;DHT22;6803;45.264;5.468;2023-04-25T10:38:02;13.80;99.90
13462;DHT22;6803;45.264;5.468;2023-04-25T10:43:38;14.40;99.90
13462;DHT22;6803;45.264;5.468;2023-04-25T10:46:16;14.10;99.90
13462;DHT22;6803;45.264;5.468;2023-04-25T10:48:49;14.20;99.90
13462;DHT22;6803;45.264;5.468;2023-04-25T10:51:23;14.60;99.90
13462;DHT22;6803;45.264;5.468;2023-04-25T10:54:02;14.40;99.90
13462;DHT22;6803;45.264;5.468;2023-04-25T10:56:36;14.70;99.90
13462;DHT22;6803;45.264;5.468;2023-04-25T10:59:09;15.70;99.90
13462;DHT22;6803;45.264;5.468;2023-04-25T11:01:42;16.30;99.90
13462;DHT22;6803;45.264;5.468;2023-04-25T11:04:24;15.60;99.90
13462;DHT22;6803;45.264;5.468;2023-04-25T11:07:02;15.60;99.90
13462;DHT22;6803;45.264;5.468;2023-04-25T11:09:35;16.50;99.90
13462;DHT22;6803;45.264;5.468;2023-04-25T11:12:09;16.20;99.90
13462;DHT22;6803;45.264;5.468;2023-04-25T11:14:41;16.60;99.90
13462;DHT22;6803;45.264;5.468;2023-04-25T11:17:12;17.10;99.90
13462;DHT22;6803;45.264;5.468;2023-04-25T11:19:43;17.40;99.90
13462;DHT22;6803;45.264;5.468;2023-04-25T11:22:14;17.30;99.90
13462;DHT22;6803;45.264;5.468;2023-04-25T11:24:45;17.90;99.90
13462;DHT22;6803;45.264;5.468;2023-04-25T11:27:16;17.70;99.90
13462;DHT22;6803;45.264;5.468;2023-04-25T11:29:47;17.80;99.90
13462;DHT22;6803;45.264;5.468;2023-04-25T11:32:19;17.40;99.90
13462;DHT22;6803;45.264;5.468;2023-04-25T11:34:52;17.90;99.90
13462;DHT22;6803;45.264;5.468;2023-04-25T11:37:23;17.30;99.90
13462;DHT22;6803;45.264;5.468;2023-04-25T11:39:54;17.60;99.90
13462;DHT22;6803;45.264;5.468;2023-04-25T11:42:25;17.30;99.90
13462;DHT22;6803;45.264;5.468;2023-04-25T11:44:56;16.90;98.80
13462;DHT22;6803;45.264;5.468;2023-04-25T11:47:30;17.20;98.90
13462;DHT22;6803;45.264;5.468;2023-04-25T11:50:02;17.90;97.90
13462;DHT22;6803;45.264;5.468;2023-04-25T11:52:38;18.70;99.90
13462;DHT22;6803;45.264;5.468;2023-04-25T11:55:12;18.30;95.90
13462;DHT22;6803;45.264;5.468;2023-04-25T11:57:44;18.40;94.70
13462;DHT22;6803;45.264;5.468;2023-04-25T12:00:18;19.40;94.40
13462;DHT22;6803;45.264;5.468;2023-04-25T12:02:51;19.50;92.90
13462;DHT22;6803;45.264;5.468;2023-04-25T12:05:26;19.00;92.70
13462;DHT22;6803;45.264;5.468;2023-04-25T12:08:10;17.80;94.90
13462;DHT22;6803;45.264;5.468;2023-04-25T12:10:43;18.00;94.90
13462;DHT22;6803;45.264;5.468;2023-04-25T12:13:25;17.70;94.00
13462;DHT22;6803;45.264;5.468;2023-04-25T12:15:57;16.70;93.70
13462;DHT22;6803;45.264;5.468;2023-04-25T12:18:30;17.60;94.60
13462;DHT22;6803;45.264;5.468;2023-04-25T12:21:01;17.90;94.90
13462;DHT22;6803;45.264;5.468;2023-04-25T12:23:33;17.00;94.60
13462;DHT22;6803;45.264;5.468;2023-04-25T12:26:05;16.90;96.70
13462;DHT22;6803;45.264;5.468;2023-04-25T12:28:36;17.70;94.60
13462;DHT22;6803;45.264;5.468;2023-04-25T12:31:08;18.30;93.40
13462;DHT22;6803;45.264;5.468;2023-04-25T12:33:39;18.70;93.40
13462;DHT22;6803;45.264;5.468;2023-04-25T12:36:12;19.30;94.70
13462;DHT22;6803;45.264;5.468;2023-04-25T12:38:43;19.10;93.50
13462;DHT22;6803;45.264;5.468;2023-04-25T12:41:14;19.20;94.10
13462;DHT22;6803;45.264;5.468;2023-04-25T12:43:45;19.00;90.60
13462;DHT22;6803;45.264;5.468;2023-04-25T12:46:16;19.30;94.10
13462;DHT22;6803;45.264;5.468;2023-04-25T12:48:46;19.00;94.20
13462;DHT22;6803;45.264;5.468;2023-04-25T12:51:17;18.10;94.10
13462;DHT22;6803;45.264;5.468;2023-04-25T12:53:48;18.10;94.70
13462;DHT22;6803;45.264;5.468;2023-04-25T12:56:20;19.10;94.50
13462;DHT22;6803;45.264;5.468;2023-04-25T12:58:52;19.50;94.80
13462;DHT22;6803;45.264;5.468;2023-04-25T13:01:24;19.50;90.80
13462;DHT22;6803;45.264;5.468;2023-04-25T13:03:56;18.90;93.40
13462;DHT22;6803;45.264;5.468;2023-04-25T13:06:27;17.80;94.40
13462;DHT22;6803;45.264;5.468;2023-04-25T13:08:59;17.00;94.90
13462;DHT22;6803;45.264;5.468;2023-04-25T13:11:30;17.20;96.20
13462;DHT22;6803;45.264;5.468;2023-04-25T13:14:01;17.10;95.60
13462;DHT22;6803;45.264;5.468;2023-04-25T13:16:33;17.20;96.10
13462;DHT22;6803;45.264;5.468;2023-04-25T13:19:04;17.80;95.40
13462;DHT22;6803;45.264;5.468;2023-04-25T13:21:38;17.30;92.60
13462;DHT22;6803;45.264;5.468;2023-04-25T13:24:08;18.00;94.80
13462;DHT22;6803;45.264;5.468;2023-04-25T13:26:39;18.40;93.20
13462;DHT22;6803;45.264;5.468;2023-04-25T13:29:10;17.90;93.90
13462;DHT22;6803;45.264;5.468;2023-04-25T13:31:41;19.20;94.80
13462;DHT22;6803;45.264;5.468;2023-04-25T13:34:12;19.70;95.10
13462;DHT22;6803;45.264;5.468;2023-04-25T13:36:43;18.40;92.40
13462;DHT22;6803;45.264;5.468;2023-04-25T13:39:14;18.10;96.60
13462;DHT22;6803;45.264;5.468;2023-04-25T13:41:45;18.10;96.20
13462;DHT22;6803;45.264;5.468;2023-04-25T13:44:17;18.70;95.50
13462;DHT22;6803;45.264;5.468;2023-04-25T13:46:47;19.10;94.60
13462;DHT22;6803;45.264;5.468;2023-04-25T13:49:18;19.40;97.70
13462;DHT22;6803;45.264;5.468;2023-04-25T13:51:50;19.90;95.60
13462;DHT22;6803;45.264;5.468;2023-04-25T13:54:21;19.90;96.50
13462;DHT22;6803;45.264;5.468;2023-04-25T13:56:52;19.70;90.80
13462;DHT22;6803;45.264;5.468;2023-04-25T13:59:24;19.70;91.00
13462;DHT22;6803;45.264;5.468;2023-04-25T14:01:55;19.20;93.20
13462;DHT22;6803;45.264;5.468;2023-04-25T14:04:27;19.00;94.30
13462;DHT22;6803;45.264;5.468;2023-04-25T14:06:58;17.70;93.30
13462;DHT22;6803;45.264;5.468;2023-04-25T14:09:29;17.20;95.80
13462;DHT22;6803;45.264;5.468;2023-04-25T14:12:00;16.30;96.30
13462;DHT22;6803;45.264;5.468;2023-04-25T14:14:31;16.20;99.90
13462;DHT22;6803;45.264;5.468;2023-04-25T14:17:02;16.20;99.40
13462;DHT22;6803;45.264;5.468;2023-04-25T14:19:33;16.20;94.10
13462;DHT22;6803;45.264;5.468;2023-04-25T14:22:04;16.00;97.50
13462;DHT22;6803;45.264;5.468;2023-04-25T14:24:35;16.00;96.90
13462;DHT22;6803;45.264;5.468;2023-04-25T14:27:06;15.80;96.70
13462;DHT22;6803;45.264;5.468;2023-04-25T14:29:36;16.80;99.90
13462;DHT22;6803;45.264;5.468;2023-04-25T14:32:07;18.10;96.40
13462;DHT22;6803;45.264;5.468;2023-04-25T14:34:38;19.70;94.70
13462;DHT22;6803;45.264;5.468;2023-04-25T14:37:09;20.40;96.70
13462;DHT22;6803;45.264;5.468;2023-04-25T14:39:40;20.70;93.70
13462;DHT22;6803;45.264;5.468;2023-04-25T14:42:12;20.50;93.40
13462;DHT22;6803;45.264;5.468;2023-04-25T14:44:43;20.30;91.30
13462;DHT22;6803;45.264;5.468;2023-04-25T14:47:14;20.50;93.20
13462;DHT22;6803;45.264;5.468;2023-04-25T14:49:45;20.30;90.80
13462;DHT22;6803;45.264;5.468;2023-04-25T14:52:19;21.00;90.90
13462;DHT22;6803;45.264;5.468;2023-04-25T14:54:50;21.50;92.10
13462;DHT22;6803;45.264;5.468;2023-04-25T14:57:21;20.60;90.90
13462;DHT22;6803;45.264;5.468;2023-04-25T14:59:52;20.20;90.20
13462;DHT22;6803;45.264;5.468;2023-04-25T15:02:24;20.20;91.80
13462;DHT22;6803;45.264;5.468;2023-04-25T15:04:55;19.20;92.00
13462;DHT22;6803;45.264;5.468;2023-04-25T15:07:26;19.00;90.20
13462;DHT22;6803;45.264;5.468;2023-04-25T15:09:57;19.30;91.70
13462;DHT22;6803;45.264;5.468;2023-04-25T15:12:28;19.00;90.10
13462;DHT22;6803;45.264;5.468;2023-04-25T15:14:59;17.90;95.30
13462;DHT22;6803;45.264;5.468;2023-04-25T15:17:31;16.90;95.40
13462;DHT22;6803;45.264;5.468;2023-04-25T15:20:02;17.20;96.70
13462;DHT22;6803;45.264;5.468;2023-04-25T15:22:35;17.00;94.70
13462;DHT22;6803;45.264;5.468;2023-04-25T15:25:08;17.20;98.20
13462;DHT22;6803;45.264;5.468;2023-04-25T15:27:40;16.70;98.30
13462;DHT22;6803;45.264;5.468;2023-04-25T15:30:13;17.20;99.50
13462;DHT22;6803;45.264;5.468;2023-04-25T15:32:46;17.20;96.30
13462;DHT22;6803;45.264;5.468;2023-04-25T15:35:17;16.50;99.70
13462;DHT22;6803;45.264;5.468;2023-04-25T15:37:48;16.30;99.00
13462;DHT22;6803;45.264;5.468;2023-04-25T15:40:20;16.70;99.30
13462;DHT22;6803;45.264;5.468;2023-04-25T15:42:52;16.60;96.40
13462;DHT22;6803;45.264;5.468;2023-04-25T15:45:24;16.80;99.90
13462;DHT22;6803;45.264;5.468;2023-04-25T15:47:57;16.20;99.90
13462;DHT22;6803;45.264;5.468;2023-04-25T15:50:28;15.80;99.90
13462;DHT22;6803;45.264;5.468;2023-04-25T15:52:59;15.40;99.90
13462;DHT22;6803;45.264;5.468;2023-04-25T15:55:32;15.40;97.50
13462;DHT22;6803;45.264;5.468;2023-04-25T15:58:03;15.70;94.50
13462;DHT22;6803;45.264;5.468;2023-04-25T16:00:34;15.50;97.60
13462;DHT22;6803;45.264;5.468;2023-04-25T16:03:06;15.40;99.80
13462;DHT22;6803;45.264;5.468;2023-04-25T16:05:38;15.20;99.10
13462;DHT22;6803;45.264;5.468;2023-04-25T16:08:11;15.20;99.80
13462;DHT22;6803;45.264;5.468;2023-04-25T16:10:45;15.20;99.90
13462;DHT22;6803;45.264;5.468;2023-04-25T16:13:16;15.10;99.90
13462;DHT22;6803;45.264;5.468;2023-04-25T16:15:47;15.40;98.60
13462;DHT22;6803;45.264;5.468;2023-04-25T16:18:18;15.40;98.70
13462;DHT22;6803;45.264;5.468;2023-04-25T16:20:49;15.20;99.90
13462;DHT22;6803;45.264;5.468;2023-04-25T16:23:19;14.90;99.90
13462;DHT22;6803;45.264;5.468;2023-04-25T16:25:50;14.90;99.90